Time;durP1;ratioP1;P1;durP2;ratioP2;P2;SDS_P1;SDS_P2;PMS_P1;PMS_P2;Temp;Humidity;BMP_temperature;BMP_pressure;BME280_temperature;BME280_humidity;BME280_pressure;Samples;Min_cycle;Max_cycle;Signal;HPM_P1;HPM_P2
2022/07/01 00:00:21;;;;;;;3.95;2.58;;;;;;;;;;4992198;28;20470;-64
2022/07/01 00:02:47;;;;;;;3.95;2.83;;;;;;;;;;4991797;28;20455;-63
2022/07/01 00:05:13;;;;;;;4.85;2.78;;;;;;;;;;4991508;28;20467;-63
2022/07/01 00:07:38;;;;;;;3.05;2.53;;;;;;;;;;4992082;28;20511;-63
2022/07/01 00:10:04;;;;;;;4.25;3.40;;;;;;;;;;4991558;28;20339;-63
2022/07/01 00:12:30;;;;;;;3.42;2.80;;;;;;;;;;4991240;28;20465;-63
2022/07/01 00:14:55;;;;;;;3.08;2.50;;;;;;;;;;4991213;28;20321;-63
2022/07/01 00:17:21;;;;;;;6.75;2.70;;;;;;;;;;4991332;28;20460;-66
2022/07/01 00:19:46;;;;;;;3.53;2.80;;;;;;;;;;4991904;28;20037;-62
2022/07/01 00:22:11;;;;;;;2.88;2.40;;;;;;;;;;4992646;28;20451;-63
2022/07/01 00:24:37;;;;;;;3.65;2.70;;;;;;;;;;4990740;28;20371;-62
2022/07/01 00:27:02;;;;;;;5.65;3.08;;;;;;;;;;4991239;28;20447;-62
2022/07/01 00:29:28;;;;;;;5.28;3.45;;;;;;;;;;4992878;28;20502;-63
2022/07/01 00:31:54;;;;;;;4.13;3.20;;;;;;;;;;4990827;28;20524;-63
2022/07/01 00:34:19;;;;;;;3.08;2.72;;;;;;;;;;4992476;28;20088;-63
2022/07/01 00:36:45;;;;;;;3.40;2.58;;;;;;;;;;4992023;28;20033;-63
2022/07/01 00:39:10;;;;;;;3.72;2.97;;;;;;;;;;4992197;28;20032;-65
2022/07/01 00:41:35;;;;;;;4.20;2.88;;;;;;;;;;4990820;28;20429;-63
2022/07/01 00:44:01;;;;;;;3.58;3.20;;;;;;;;;;4990723;28;20438;-63
2022/07/01 00:46:26;;;;;;;4.10;2.60;;;;;;;;;;4990722;28;20356;-63
2022/07/01 00:48:56;;;;;;;5.72;3.15;;;;;;;;;;4973447;28;20369;-63
2022/07/01 00:51:22;;;;;;;3.08;2.78;;;;;;;;;;4990400;28;20305;-63
2022/07/01 00:53:47;;;;;;;4.63;3.13;;;;;;;;;;4990229;28;20102;-64
2022/07/01 00:56:13;;;;;;;5.30;2.78;;;;;;;;;;4991316;28;20056;-62
2022/07/01 00:58:39;;;;;;;5.07;3.08;;;;;;;;;;4991663;28;20048;-63
2022/07/01 01:01:05;;;;;;;3.80;2.97;;;;;;;;;;4985013;28;20474;-63
2022/07/01 01:03:30;;;;;;;3.72;2.97;;;;;;;;;;4964384;28;20415;-62
2022/07/01 01:05:56;;;;;;;3.72;2.78;;;;;;;;;;4990344;28;20424;-62
2022/07/01 01:08:22;;;;;;;3.38;2.80;;;;;;;;;;4972499;28;20459;-62
2022/07/01 01:10:47;;;;;;;3.25;2.40;;;;;;;;;;4990190;28;20502;-62
2022/07/01 01:13:13;;;;;;;4.18;3.30;;;;;;;;;;4972414;28;20407;-62
2022/07/01 01:15:38;;;;;;;3.72;2.90;;;;;;;;;;4989906;28;20439;-62
2022/07/01 01:18:04;;;;;;;5.93;3.40;;;;;;;;;;4991370;28;20340;-63
2022/07/01 01:20:34;;;;;;;5.93;2.90;;;;;;;;;;4990158;28;20354;-64
2022/07/01 01:23:01;;;;;;;4.50;2.92;;;;;;;;;;4990358;28;20394;-63
2022/07/01 01:25:27;;;;;;;6.90;3.03;;;;;;;;;;4989981;28;20305;-62
2022/07/01 01:27:52;;;;;;;4.47;2.80;;;;;;;;;;4990573;28;20320;-63
2022/07/01 01:30:17;;;;;;;4.18;3.03;;;;;;;;;;4989907;28;20371;-64
2022/07/01 01:32:44;;;;;;;6.15;3.28;;;;;;;;;;4991024;28;20419;-62
2022/07/01 01:35:10;;;;;;;3.92;2.70;;;;;;;;;;4990888;28;20459;-63
2022/07/01 01:37:35;;;;;;;3.97;3.10;;;;;;;;;;4990725;28;20428;-62
2022/07/01 01:40:01;;;;;;;4.00;2.80;;;;;;;;;;4990749;28;20515;-62
2022/07/01 01:42:27;;;;;;;3.42;2.60;;;;;;;;;;4989731;28;20462;-62
2022/07/01 01:44:54;;;;;;;4.50;3.35;;;;;;;;;;4989841;28;20461;-62
2022/07/01 01:47:19;;;;;;;3.20;2.85;;;;;;;;;;4990274;28;20505;-67
2022/07/01 01:49:44;;;;;;;7.55;2.60;;;;;;;;;;4989519;28;20526;-62
2022/07/01 01:52:10;;;;;;;4.75;3.08;;;;;;;;;;4989782;28;20477;-63
2022/07/01 01:54:36;;;;;;;3.45;2.80;;;;;;;;;;4989824;28;20411;-63
2022/07/01 01:57:03;;;;;;;5.13;3.20;;;;;;;;;;4989229;28;20419;-64
2022/07/01 01:59:28;;;;;;;4.22;3.20;;;;;;;;;;4989104;28;20041;-63
2022/07/01 02:01:54;;;;;;;4.38;2.95;;;;;;;;;;4989662;28;20033;-63
2022/07/01 02:04:20;;;;;;;5.07;3.40;;;;;;;;;;4990384;28;20513;-62
2022/07/01 02:06:46;;;;;;;3.50;3.08;;;;;;;;;;4971376;28;20316;-63
2022/07/01 02:09:13;;;;;;;5.43;3.55;;;;;;;;;;4989183;28;20435;-62
2022/07/01 02:11:38;;;;;;;3.60;3.10;;;;;;;;;;4988987;28;20348;-63
2022/07/01 02:14:04;;;;;;;5.03;2.88;;;;;;;;;;4989777;28;20056;-63
2022/07/01 02:16:29;;;;;;;4.88;2.80;;;;;;;;;;4989922;28;20557;-63
2022/07/01 02:18:54;;;;;;;6.57;3.38;;;;;;;;;;4988997;28;20029;-62
2022/07/01 02:21:20;;;;;;;5.05;3.15;;;;;;;;;;4989452;28;20467;-63
2022/07/01 02:23:45;;;;;;;3.63;2.97;;;;;;;;;;4989597;28;20376;-63
2022/07/01 02:26:10;;;;;;;4.50;2.97;;;;;;;;;;4989658;28;20367;-63
2022/07/01 02:28:36;;;;;;;3.35;2.70;;;;;;;;;;4989329;28;20408;-63
2022/07/01 02:31:02;;;;;;;3.67;3.00;;;;;;;;;;4989114;28;20359;-62
2022/07/01 02:33:28;;;;;;;4.00;2.75;;;;;;;;;;4989299;28;20416;-63
2022/07/01 02:35:53;;;;;;;4.63;3.35;;;;;;;;;;4989675;28;20406;-62
2022/07/01 02:38:19;;;;;;;3.13;2.80;;;;;;;;;;4989036;28;20424;-64
2022/07/01 02:40:44;;;;;;;3.00;2.70;;;;;;;;;;4988877;28;20498;-63
2022/07/01 02:43:09;;;;;;;4.70;3.08;;;;;;;;;;4988912;28;20514;-63
2022/07/01 02:45:35;;;;;;;5.28;3.03;;;;;;;;;;4989208;28;20478;-63
2022/07/01 02:48:01;;;;;;;3.17;2.60;;;;;;;;;;4989016;28;20484;-63
2022/07/01 02:50:27;;;;;;;4.95;3.35;;;;;;;;;;4988923;28;20444;-63
2022/07/01 02:52:53;;;;;;;3.45;2.80;;;;;;;;;;4989058;28;20029;-63
2022/07/01 02:55:18;;;;;;;4.50;2.67;;;;;;;;;;4990001;28;20106;-63
2022/07/01 02:57:44;;;;;;;4.95;3.70;;;;;;;;;;4988848;28;20345;-64
2022/07/01 03:00:12;;;;;;;4.93;3.13;;;;;;;;;;4989071;28;20025;-62
2022/07/01 03:02:38;;;;;;;;;;;;;;;;;;4989339;28;20423;-65
2022/07/01 03:05:04;;;;;;;3.15;2.72;;;;;;;;;;4990484;28;19921;-63
2022/07/01 03:07:29;;;;;;;4.00;2.97;;;;;;;;;;4988306;28;20479;-63
2022/07/01 03:09:55;;;;;;;4.70;2.78;;;;;;;;;;4988758;28;20545;-63
2022/07/01 03:12:25;;;;;;;3.47;2.92;;;;;;;;;;4988520;28;20412;-64
2022/07/01 03:14:52;;;;;;;3.28;2.92;;;;;;;;;;4989068;28;20332;-63
2022/07/01 03:17:18;;;;;;;4.95;3.05;;;;;;;;;;4988641;28;20424;-63
2022/07/01 03:19:44;;;;;;;3.30;2.97;;;;;;;;;;4992443;28;20462;-62
2022/07/01 03:22:10;;;;;;;3.28;2.97;;;;;;;;;;4992789;28;20167;-63
2022/07/01 03:24:35;;;;;;;4.57;3.50;;;;;;;;;;4991916;28;20091;-62
2022/07/01 03:27:00;;;;;;;2.72;2.50;;;;;;;;;;4993111;28;20080;-62
2022/07/01 03:29:26;;;;;;;4.65;3.50;;;;;;;;;;4993313;28;20447;-63
2022/07/01 03:31:51;;;;;;;3.30;2.75;;;;;;;;;;4992287;28;20436;-62
2022/07/01 03:34:17;;;;;;;7.35;3.78;;;;;;;;;;4992449;28;20534;-63
2022/07/01 03:36:42;;;;;;;3.25;2.75;;;;;;;;;;4992591;28;20452;-63
2022/07/01 03:39:08;;;;;;;3.38;3.05;;;;;;;;;;4993375;28;20165;-62
2022/07/01 03:41:34;;;;;;;5.00;3.17;;;;;;;;;;4991836;28;20447;-63
2022/07/01 03:43:59;;;;;;;4.72;3.50;;;;;;;;;;4991885;28;20335;-66
2022/07/01 03:46:24;;;;;;;5.18;3.40;;;;;;;;;;4991887;28;20325;-62
2022/07/01 03:48:50;;;;;;;5.13;3.60;;;;;;;;;;4991823;28;20466;-63
2022/07/01 03:51:15;;;;;;;9.18;3.70;;;;;;;;;;4992183;28;20565;-63
2022/07/01 03:56:24;;;;;;;4.75;3.60;;;;;;;;;;4991879;28;20473;-67
2022/07/01 03:58:50;;;;;;;3.70;3.00;;;;;;;;;;4974153;28;20412;-62
2022/07/01 04:01:15;;;;;;;3.88;3.25;;;;;;;;;;4991202;28;20025;-63
2022/07/01 04:03:40;;;;;;;5.05;3.17;;;;;;;;;;4991783;28;20408;-62
2022/07/01 04:06:06;;;;;;;3.53;3.22;;;;;;;;;;4991379;28;20325;-62
2022/07/01 04:08:32;;;;;;;4.05;3.30;;;;;;;;;;4992012;28;20321;-63
2022/07/01 04:10:57;;;;;;;7.47;3.03;;;;;;;;;;4991493;28;20044;-63
2022/07/01 04:13:23;;;;;;;4.93;3.60;;;;;;;;;;4991743;28;20345;-65
2022/07/01 04:15:49;;;;;;;3.97;3.22;;;;;;;;;;4991375;28;20324;-63
2022/07/01 04:18:15;;;;;;;3.67;3.20;;;;;;;;;;4991869;28;20334;-62
2022/07/01 04:20:40;;;;;;;4.63;3.10;;;;;;;;;;4991420;28;20104;-62
2022/07/01 04:23:05;;;;;;;4.22;3.22;;;;;;;;;;4991149;28;20522;-63
2022/07/01 04:25:31;;;;;;;3.10;2.63;;;;;;;;;;4990942;28;20360;-62
2022/07/01 04:27:57;;;;;;;5.53;3.30;;;;;;;;;;4991227;28;20451;-63
2022/07/01 04:30:22;;;;;;;5.18;3.40;;;;;;;;;;4989891;28;20503;-63
2022/07/01 04:32:48;;;;;;;3.10;2.67;;;;;;;;;;4993095;28;20374;-63
2022/07/01 04:35:14;;;;;;;3.50;3.20;;;;;;;;;;4991071;28;20490;-63
2022/07/01 04:37:40;;;;;;;3.83;2.95;;;;;;;;;;4990807;28;20444;-62
2022/07/01 04:40:06;;;;;;;4.80;2.85;;;;;;;;;;4991007;28;20104;-63
2022/07/01 04:42:32;;;;;;;5.55;3.75;;;;;;;;;;4990804;28;20029;-62
2022/07/01 04:44:57;;;;;;;4.97;3.35;;;;;;;;;;4990646;28;20482;-63
2022/07/01 04:47:23;;;;;;;4.82;3.28;;;;;;;;;;4990805;28;20430;-67
2022/07/01 04:49:49;;;;;;;5.47;4.22;;;;;;;;;;4990591;28;20032;-63
2022/07/01 04:52:14;;;;;;;4.40;3.42;;;;;;;;;;4991223;28;20451;-63
2022/07/01 04:54:41;;;;;;;4.05;3.22;;;;;;;;;;4991267;28;20503;-64
2022/07/01 04:57:06;;;;;;;4.25;3.05;;;;;;;;;;4990598;28;20450;-62
2022/07/01 04:59:32;;;;;;;3.10;2.70;;;;;;;;;;4990477;28;20397;-64
2022/07/01 05:01:58;;;;;;;4.07;2.72;;;;;;;;;;4990617;28;20396;-62
2022/07/01 05:04:24;;;;;;;4.13;3.20;;;;;;;;;;4990444;28;20424;-62
2022/07/01 05:06:49;;;;;;;3.85;2.95;;;;;;;;;;4990127;28;20463;-62
2022/07/01 05:09:15;;;;;;;3.33;2.72;;;;;;;;;;4990151;28;20465;-63
2022/07/01 05:11:40;;;;;;;4.07;3.17;;;;;;;;;;4990008;28;20394;-64
2022/07/01 05:14:07;;;;;;;3.72;2.97;;;;;;;;;;4990120;28;20423;-62
2022/07/01 05:16:33;;;;;;;3.83;3.22;;;;;;;;;;4990301;28;20064;-63
2022/07/01 05:21:58;;;;;;;3.92;2.72;;;;;;;;;;4990622;28;20178;-63
2022/07/01 05:24:27;;;;;;;7.25;3.10;;;;;;;;;;4989568;28;20380;-63
2022/07/01 05:26:52;;;;;;;4.70;3.40;;;;;;;;;;4989920;28;20431;-63
2022/07/01 05:29:18;;;;;;;4.45;3.10;;;;;;;;;;4990867;28;20462;-63
2022/07/01 05:31:44;;;;;;;4.07;2.90;;;;;;;;;;4990315;28;20088;-62
2022/07/01 05:34:09;;;;;;;4.07;3.05;;;;;;;;;;4990978;28;20479;-62
2022/07/01 05:36:35;;;;;;;3.70;2.95;;;;;;;;;;4989762;28;20037;-63
2022/07/01 05:39:00;;;;;;;4.55;2.72;;;;;;;;;;4989533;28;20363;-62
2022/07/01 05:41:26;;;;;;;3.03;2.72;;;;;;;;;;4989946;28;20431;-62
2022/07/01 05:43:51;;;;;;;3.33;2.92;;;;;;;;;;4989416;28;20443;-63
2022/07/01 05:46:17;;;;;;;4.78;3.00;;;;;;;;;;4989618;28;20431;-64
2022/07/01 05:48:42;;;;;;;3.33;2.60;;;;;;;;;;4989990;28;20594;-63
2022/07/01 05:51:07;;;;;;;3.85;3.05;;;;;;;;;;4989384;28;20470;-63
2022/07/01 05:53:33;;;;;;;3.97;2.92;;;;;;;;;;4989012;28;20438;-62
2022/07/01 05:55:58;;;;;;;4.22;3.05;;;;;;;;;;4989455;28;20424;-62
2022/07/01 05:58:24;;;;;;;3.65;2.75;;;;;;;;;;4989562;28;20468;-63
2022/07/01 06:00:50;;;;;;;3.80;2.92;;;;;;;;;;4989677;28;20399;-62
2022/07/01 06:03:15;;;;;;;3.22;2.83;;;;;;;;;;4989282;28;20457;-62
2022/07/01 06:05:41;;;;;;;3.83;3.35;;;;;;;;;;4990389;28;20450;-64
2022/07/01 06:08:07;;;;;;;3.42;2.95;;;;;;;;;;4990064;28;20419;-63
2022/07/01 06:10:34;;;;;;;3.92;3.08;;;;;;;;;;4989269;28;20148;-63
2022/07/01 06:12:59;;;;;;;3.40;3.10;;;;;;;;;;4989352;28;20506;-62
2022/07/01 06:15:25;;;;;;;4.38;3.05;;;;;;;;;;4989010;28;20430;-62
2022/07/01 06:17:51;;;;;;;3.92;2.83;;;;;;;;;;4990664;28;20033;-62
2022/07/01 06:20:17;;;;;;;6.40;2.92;;;;;;;;;;4989241;28;20426;-63
2022/07/01 06:22:42;;;;;;;5.32;3.15;;;;;;;;;;4990266;28;20295;-62
2022/07/01 06:25:08;;;;;;;4.90;2.88;;;;;;;;;;4989190;28;20444;-63
2022/07/01 06:27:40;;;;;;;3.15;2.63;;;;;;;;;;4989644;28;20501;-62
2022/07/01 06:30:06;;;;;;;3.15;2.80;;;;;;;;;;4989067;28;20170;-63
2022/07/01 06:32:32;;;;;;;5.82;3.13;;;;;;;;;;4989622;28;20440;-62
2022/07/01 06:34:57;;;;;;;4.53;2.67;;;;;;;;;;4989485;28;20111;-62
2022/07/01 06:37:22;;;;;;;3.70;3.05;;;;;;;;;;4988978;28;20436;-63
2022/07/01 06:39:48;;;;;;;3.22;2.80;;;;;;;;;;4990767;28;20509;-62
2022/07/01 06:42:13;;;;;;;3.88;3.10;;;;;;;;;;4988935;28;20490;-62
2022/07/01 06:44:38;;;;;;;4.60;2.97;;;;;;;;;;4988857;28;20374;-62
2022/07/01 06:47:04;;;;;;;3.67;2.72;;;;;;;;;;4989160;28;20348;-63
2022/07/01 06:49:29;;;;;;;3.88;2.75;;;;;;;;;;4988941;28;20041;-63
2022/07/01 06:51:55;;;;;;;3.72;2.83;;;;;;;;;;4988881;28;20386;-63
2022/07/01 06:54:20;;;;;;;4.95;3.40;;;;;;;;;;4992444;28;20345;-62
2022/07/01 06:56:45;;;;;;;5.63;3.03;;;;;;;;;;4992555;28;20434;-62
2022/07/01 06:59:11;;;;;;;3.50;2.97;;;;;;;;;;4993798;28;20021;-62
2022/07/01 07:01:37;;;;;;;3.28;2.58;;;;;;;;;;4992432;28;20509;-62
2022/07/01 07:04:02;;;;;;;3.40;2.47;;;;;;;;;;4993641;28;20029;-65
2022/07/01 07:06:29;;;;;;;3.70;2.83;;;;;;;;;;4992424;28;20493;-62
2022/07/01 07:08:54;;;;;;;3.75;2.85;;;;;;;;;;4992578;28;20455;-62
2022/07/01 07:11:19;;;;;;;3.25;2.78;;;;;;;;;;4992822;28;20489;-62
2022/07/01 07:13:45;;;;;;;3.85;2.92;;;;;;;;;;4992474;28;20017;-63
2022/07/01 07:16:10;;;;;;;4.03;2.67;;;;;;;;;;4992140;28;20423;-62
2022/07/01 07:18:36;;;;;;;2.85;2.40;;;;;;;;;;4992462;28;20341;-63
2022/07/01 07:21:03;;;;;;;3.95;2.78;;;;;;;;;;4992340;28;20364;-63
2022/07/01 07:23:28;;;;;;;4.22;2.72;;;;;;;;;;4992229;28;20106;-62
2022/07/01 07:25:54;;;;;;;3.72;2.58;;;;;;;;;;4992414;28;20475;-63
2022/07/01 07:28:19;;;;;;;3.00;2.70;;;;;;;;;;4992192;28;20367;-62
2022/07/01 07:30:45;;;;;;;4.00;2.80;;;;;;;;;;4992224;28;20319;-62
2022/07/01 07:33:10;;;;;;;3.15;2.60;;;;;;;;;;4992628;28;20115;-63
2022/07/01 07:35:36;;;;;;;3.42;2.60;;;;;;;;;;4992006;28;20338;-62
2022/07/01 07:38:01;;;;;;;4.85;2.90;;;;;;;;;;4992447;28;20435;-63
2022/07/01 07:40:26;;;;;;;3.03;2.58;;;;;;;;;;4991752;28;20440;-62
2022/07/01 07:42:52;;;;;;;3.10;2.50;;;;;;;;;;4991604;28;20456;-62
2022/07/01 07:45:17;;;;;;;4.20;3.10;;;;;;;;;;4993096;28;20049;-63
2022/07/01 07:47:44;;;;;;;3.03;2.70;;;;;;;;;;4992791;28;20431;-62
2022/07/01 07:50:10;;;;;;;2.67;2.40;;;;;;;;;;4992487;28;20343;-62
2022/07/01 07:52:36;;;;;;;3.45;2.55;;;;;;;;;;4993309;28;20370;-63
2022/07/01 07:55:02;;;;;;;4.20;2.85;;;;;;;;;;4991401;28;20347;-62
2022/07/01 07:57:28;;;;;;;3.20;2.50;;;;;;;;;;4992129;28;20410;-64
2022/07/01 07:59:53;;;;;;;3.80;2.58;;;;;;;;;;4991998;28;20118;-62
2022/07/01 08:02:19;;;;;;;2.92;2.63;;;;;;;;;;4991848;28;20343;-63
2022/07/01 08:04:44;;;;;;;3.05;2.60;;;;;;;;;;4991504;28;20514;-61
2022/07/01 08:07:09;;;;;;;3.42;2.60;;;;;;;;;;4991498;28;20320;-62
2022/07/01 08:09:35;;;;;;;3.67;2.65;;;;;;;;;;4992474;28;20408;-63
2022/07/01 08:12:03;;;;;;;2.45;2.13;;;;;;;;;;4991524;28;20424;-62
2022/07/01 08:14:29;;;;;;;3.20;2.72;;;;;;;;;;4991268;28;20025;-63
2022/07/01 08:16:54;;;;;;;2.67;2.20;;;;;;;;;;4991341;28;20478;-62
2022/07/01 08:19:20;;;;;;;3.25;2.67;;;;;;;;;;4991109;28;20324;-62
2022/07/01 08:21:45;;;;;;;3.10;2.50;;;;;;;;;;4991346;28;20076;-65
2022/07/01 08:24:11;;;;;;;3.83;2.45;;;;;;;;;;4991455;28;20154;-62
2022/07/01 08:26:36;;;;;;;3.42;2.90;;;;;;;;;;4992356;28;20102;-62
2022/07/01 08:29:02;;;;;;;2.83;2.38;;;;;;;;;;4991236;28;20379;-64
2022/07/01 08:31:27;;;;;;;3.13;2.60;;;;;;;;;;4991641;28;20092;-62
2022/07/01 08:33:53;;;;;;;2.80;2.55;;;;;;;;;;4991381;28;20025;-63
2022/07/01 08:36:18;;;;;;;2.80;2.35;;;;;;;;;;4990900;28;20069;-65
2022/07/01 08:38:44;;;;;;;3.08;2.67;;;;;;;;;;4991840;28;20528;-63
2022/07/01 08:41:09;;;;;;;3.22;2.42;;;;;;;;;;4990908;28;20444;-63
2022/07/01 08:43:35;;;;;;;3.25;2.60;;;;;;;;;;4990916;28;20416;-62
2022/07/01 08:46:01;;;;;;;3.30;2.80;;;;;;;;;;4990885;28;20367;-62
2022/07/01 08:48:28;;;;;;;4.22;2.38;;;;;;;;;;4990601;28;20367;-62
2022/07/01 08:50:53;;;;;;;3.58;2.63;;;;;;;;;;4973914;28;20025;-64
2022/07/01 08:53:20;;;;;;;3.17;2.42;;;;;;;;;;4990382;28;20446;-62
2022/07/01 08:58:30;;;;;;;2.92;2.53;;;;;;;;;;4991699;28;20352;-62
2022/07/01 09:01:12;;;;;;;3.05;2.53;;;;;;;;;;4990232;28;20327;-62
2022/07/01 09:03:38;;;;;;;3.10;2.30;;;;;;;;;;4990950;28;20110;-62
2022/07/01 09:06:30;;;;;;;2.78;2.10;;;;;;;;;;4990805;28;20029;-62
2022/07/01 09:09:11;;;;;;;4.15;2.65;;;;;;;;;;4989662;28;20372;-62
2022/07/01 09:11:36;;;;;;;3.42;2.70;;;;;;;;;;4989974;28;20375;-62
2022/07/01 09:14:09;;;;;;;2.30;2.10;;;;;;;;;;4990079;28;20418;-63
2022/07/01 09:16:42;;;;;;;4.47;2.47;;;;;;;;;;4989494;28;20582;-63
2022/07/01 09:19:07;;;;;;;2.90;2.50;;;;;;;;;;4990291;28;20032;-62
2022/07/01 09:21:33;;;;;;;2.78;2.38;;;;;;;;;;4989881;28;20433;-62
2022/07/01 09:24:03;;;;;;;2.22;2.03;;;;;;;;;;4989981;28;20402;-62
2022/07/01 09:26:29;;;;;;;3.00;2.20;;;;;;;;;;4990080;28;20111;-62
2022/07/01 09:28:55;;;;;;;2.80;2.42;;;;;;;;;;4990266;28;20100;-62
2022/07/01 09:31:21;;;;;;;2.92;2.20;;;;;;;;;;4989888;28;20569;-63
2022/07/01 09:34:02;;;;;;;2.65;2.25;;;;;;;;;;4989940;28;20416;-63
2022/07/01 09:36:28;;;;;;;3.40;2.60;;;;;;;;;;4990309;28;20447;-62
2022/07/01 09:38:53;;;;;;;2.53;2.25;;;;;;;;;;4989607;28;20498;-62
2022/07/01 09:41:23;;;;;;;3.47;2.53;;;;;;;;;;4989465;28;20100;-62
2022/07/01 09:43:48;;;;;;;2.80;2.33;;;;;;;;;;4989719;28;20367;-67
2022/07/01 09:46:13;;;;;;;2.83;2.17;;;;;;;;;;4989810;28;20341;-62
2022/07/01 09:48:39;;;;;;;2.85;2.40;;;;;;;;;;4989601;28;20056;-62
2022/07/01 09:51:06;;;;;;;2.85;2.35;;;;;;;;;;4991067;28;20455;-62
2022/07/01 09:53:32;;;;;;;2.95;2.25;;;;;;;;;;4989626;28;20028;-63
2022/07/01 09:55:58;;;;;;;3.47;2.45;;;;;;;;;;4989405;28;20446;-62
2022/07/01 09:58:23;;;;;;;3.30;2.63;;;;;;;;;;4989589;28;20410;-62
2022/07/01 10:00:52;;;;;;;2.15;1.88;;;;;;;;;;4989614;28;20431;-62
2022/07/01 10:03:19;;;;;;;3.55;2.67;;;;;;;;;;4989913;28;20392;-62
2022/07/01 10:05:50;;;;;;;4.05;2.35;;;;;;;;;;4989494;28;20462;-62
2022/07/01 10:08:49;;;;;;;2.78;2.25;;;;;;;;;;4989438;28;20420;-62
2022/07/01 10:11:42;;;;;;;2.58;2.38;;;;;;;;;;4989526;28;20518;-63
2022/07/01 10:14:10;;;;;;;4.72;2.30;;;;;;;;;;4990444;28;20545;-62
2022/07/01 10:16:38;;;;;;;4.47;2.35;;;;;;;;;;4989668;28;20439;-62
2022/07/01 10:19:29;;;;;;;2.90;2.25;;;;;;;;;;4971666;28;20339;-62
2022/07/01 10:22:00;;;;;;;2.55;2.22;;;;;;;;;;4989515;28;20461;-63
2022/07/01 10:24:27;;;;;;;3.40;2.22;;;;;;;;;;4989090;28;20463;-61
2022/07/01 10:26:54;;;;;;;2.60;2.20;;;;;;;;;;4989946;28;20301;-62
2022/07/01 10:29:40;;;;;;;3.53;2.43;;;;;;;;;;4976396;28;20451;-62
2022/07/01 10:32:11;;;;;;;3.63;2.70;;;;;;;;;;4992814;28;20489;-62
2022/07/01 10:34:41;;;;;;;2.80;2.40;;;;;;;;;;4993470;28;20343;-62
2022/07/01 10:37:10;;;;;;;3.28;2.33;;;;;;;;;;4993002;28;20386;-62
2022/07/01 10:39:57;;;;;;;2.72;2.28;;;;;;;;;;4993162;28;20505;-62
2022/07/01 10:42:36;;;;;;;3.08;2.40;;;;;;;;;;4993452;28;20376;-62
2022/07/01 10:45:04;;;;;;;2.97;2.38;;;;;;;;;;4975625;28;20095;-63
2022/07/01 10:47:30;;;;;;;;;;;;;;;;;;4993463;28;20143;-63
2022/07/01 10:50:08;;;;;;;3.63;2.50;;;;;;;;;;4993031;28;20318;-63
2022/07/01 10:52:34;;;;;;;;;;;;;;;;;;4994778;28;20335;-62
2022/07/01 10:55:00;;;;;;;2.45;2.05;;;;;;;;;;4993144;28;19987;-64
2022/07/01 10:57:40;;;;;;;2.10;1.90;;;;;;;;;;4992519;28;20431;-62
2022/07/01 11:00:05;;;;;;;2.40;1.98;;;;;;;;;;4992793;28;20029;-63
2022/07/01 11:02:32;;;;;;;3.50;2.35;;;;;;;;;;4994156;28;20125;-63
2022/07/01 11:05:03;;;;;;;2.35;2.15;;;;;;;;;;4992848;28;20363;-63
2022/07/01 11:07:31;;;;;;;3.40;2.25;;;;;;;;;;4993024;28;20404;-63
2022/07/01 11:09:57;;;;;;;2.33;1.75;;;;;;;;;;4993519;28;20324;-63
2022/07/01 11:12:23;;;;;;;4.35;3.05;;;;;;;;;;4993458;28;20435;-63
2022/07/01 11:14:49;;;;;;;3.03;2.22;;;;;;;;;;4992859;28;20421;-62
2022/07/01 11:17:15;;;;;;;3.45;1.95;;;;;;;;;;4992421;28;20451;-63
2022/07/01 11:19:47;;;;;;;2.80;2.10;;;;;;;;;;4993045;28;20428;-63
2022/07/01 11:22:17;;;;;;;2.00;1.80;;;;;;;;;;4992240;28;20447;-63
2022/07/01 11:24:44;;;;;;;2.10;1.85;;;;;;;;;;4991948;28;20605;-63
2022/07/01 11:27:09;;;;;;;3.22;2.08;;;;;;;;;;4992310;28;20447;-64
2022/07/01 11:29:35;;;;;;;2.38;1.77;;;;;;;;;;4991783;28;20420;-63
2022/07/01 11:32:00;;;;;;;2.15;1.85;;;;;;;;;;4992130;28;20424;-63
2022/07/01 11:34:29;;;;;;;2.53;2.13;;;;;;;;;;4993007;28;20442;-67
2022/07/01 11:39:41;;;;;;;2.33;1.70;;;;;;;;;;4992800;28;20478;-63
2022/07/01 11:42:08;;;;;;;2.45;2.00;;;;;;;;;;4993597;28;20044;-64
2022/07/01 11:44:44;;;;;;;2.20;1.90;;;;;;;;;;4992597;28;20324;-63
2022/07/01 11:47:11;;;;;;;2.35;1.83;;;;;;;;;;4992107;28;20555;-62
2022/07/01 11:49:47;;;;;;;2.20;1.90;;;;;;;;;;4974492;28;20378;-62
2022/07/01 11:52:13;;;;;;;1.88;1.60;;;;;;;;;;4992152;28;20495;-62
2022/07/01 11:54:39;;;;;;;1.98;1.77;;;;;;;;;;4991764;28;20447;-63
2022/07/01 11:57:16;;;;;;;2.30;2.10;;;;;;;;;;4991185;28;20498;-62
2022/07/01 11:59:43;;;;;;;3.08;2.47;;;;;;;;;;4991578;28;20438;-62
2022/07/01 12:02:13;;;;;;;2.75;1.63;;;;;;;;;;4991735;28;20056;-63
2022/07/01 12:04:39;;;;;;;2.42;2.05;;;;;;;;;;4991600;28;20416;-62
2022/07/01 12:07:05;;;;;;;3.10;2.30;;;;;;;;;;4992585;28;20351;-63
2022/07/01 12:09:31;;;;;;;2.47;1.80;;;;;;;;;;4991712;28;20017;-65
2022/07/01 12:11:56;;;;;;;2.45;1.70;;;;;;;;;;4991834;28;20503;-62
2022/07/01 12:14:33;;;;;;;2.22;1.77;;;;;;;;;;4991420;28;20453;-63
2022/07/01 12:17:05;;;;;;;2.75;1.73;;;;;;;;;;4991407;28;20421;-63
2022/07/01 12:19:38;;;;;;;2.97;1.70;;;;;;;;;;4991231;28;20356;-62
2022/07/01 12:22:12;;;;;;;2.40;2.05;;;;;;;;;;4991190;28;20029;-65
2022/07/01 12:24:38;;;;;;;3.42;2.40;;;;;;;;;;4991107;28;20371;-62
2022/07/01 12:27:05;;;;;;;3.13;2.05;;;;;;;;;;4991091;28;20025;-62
2022/07/01 12:29:51;;;;;;;2.73;2.00;;;;;;;;;;4990996;28;20529;-62
2022/07/01 12:32:24;;;;;;;2.80;2.28;;;;;;;;;;4991381;28;20506;-63
2022/07/01 12:34:57;;;;;;;2.08;1.88;;;;;;;;;;4991948;28;20064;-63
2022/07/01 12:37:28;;;;;;;2.80;1.85;;;;;;;;;;4991108;28;20444;-62
2022/07/01 12:39:59;;;;;;;3.05;2.17;;;;;;;;;;4992060;28;20323;-63
2022/07/01 12:42:28;;;;;;;2.88;2.28;;;;;;;;;;4990656;28;20120;-62
2022/07/01 12:44:56;;;;;;;3.30;2.05;;;;;;;;;;4991995;28;20439;-63
2022/07/01 12:47:29;;;;;;;2.03;1.85;;;;;;;;;;4991141;28;20037;-63
2022/07/01 12:50:11;;;;;;;3.75;1.88;;;;;;;;;;4990349;28;20404;-62
2022/07/01 12:52:38;;;;;;;5.88;2.28;;;;;;;;;;4990383;28;20408;-62
2022/07/01 12:55:36;;;;;;;2.00;1.80;;;;;;;;;;4990634;28;20551;-62
2022/07/01 12:58:06;;;;;;;2.80;2.28;;;;;;;;;;4978832;28;20471;-62
2022/07/01 13:00:32;;;;;;;2.75;2.42;;;;;;;;;;4990622;28;20351;-64
2022/07/01 13:02:59;;;;;;;3.50;2.15;;;;;;;;;;4990387;28;20439;-63
2022/07/01 13:05:26;;;;;;;2.47;2.03;;;;;;;;;;4990449;28;20394;-63
2022/07/01 13:07:51;;;;;;;2.10;1.90;;;;;;;;;;4990422;28;20453;-63
2022/07/01 13:10:17;;;;;;;2.55;2.30;;;;;;;;;;4990200;28;20165;-63
2022/07/01 13:12:46;;;;;;;2.83;2.10;;;;;;;;;;4990308;28;20340;-62
2022/07/01 13:15:13;;;;;;;2.65;2.20;;;;;;;;;;4990214;28;20451;-62
2022/07/01 13:17:39;;;;;;;2.17;1.95;;;;;;;;;;4990319;28;20359;-62
2022/07/01 13:20:05;;;;;;;3.00;2.03;;;;;;;;;;4989776;28;20029;-65
2022/07/01 13:22:31;;;;;;;3.58;1.90;;;;;;;;;;4990168;28;20383;-62
2022/07/01 13:24:56;;;;;;;3.35;2.03;;;;;;;;;;4990142;28;20041;-62
2022/07/01 13:27:24;;;;;;;3.25;2.53;;;;;;;;;;4990647;28;20507;-62
2022/07/01 13:29:50;;;;;;;8.02;3.45;;;;;;;;;;4989982;28;20436;-63
2022/07/01 13:32:15;;;;;;;2.90;1.92;;;;;;;;;;4989902;28;20466;-63
2022/07/01 13:34:40;;;;;;;2.58;2.30;;;;;;;;;;4990145;28;20439;-64
2022/07/01 13:37:06;;;;;;;2.40;1.85;;;;;;;;;;4989947;28;20447;-62
2022/07/01 13:39:31;;;;;;;2.67;1.92;;;;;;;;;;4990105;28;20053;-63
2022/07/01 13:41:57;;;;;;;3.33;2.13;;;;;;;;;;4989754;28;20060;-62
2022/07/01 13:44:22;;;;;;;3.10;2.38;;;;;;;;;;4989849;28;20320;-63
2022/07/01 13:46:48;;;;;;;2.30;1.85;;;;;;;;;;4990645;28;20419;-62
2022/07/01 13:49:13;;;;;;;2.72;1.70;;;;;;;;;;4990358;28;20344;-62
2022/07/01 13:51:39;;;;;;;3.00;2.20;;;;;;;;;;4989507;28;20534;-62
2022/07/01 13:54:06;;;;;;;3.15;2.00;;;;;;;;;;4989287;28;20494;-63
2022/07/01 13:56:31;;;;;;;2.45;1.75;;;;;;;;;;4989561;28;20448;-62
2022/07/01 13:58:56;;;;;;;2.67;1.95;;;;;;;;;;4971766;28;20435;-63
2022/07/01 14:01:22;;;;;;;2.40;1.98;;;;;;;;;;4989192;28;20055;-62
2022/07/01 14:03:49;;;;;;;2.28;1.80;;;;;;;;;;4989541;28;20335;-62
2022/07/01 14:06:14;;;;;;;3.50;2.38;;;;;;;;;;4989515;28;20625;-62
2022/07/01 14:08:40;;;;;;;2.75;1.80;;;;;;;;;;4972284;28;20462;-62
2022/07/01 14:11:06;;;;;;;2.15;1.95;;;;;;;;;;4990475;28;20340;-63
2022/07/01 14:13:31;;;;;;;3.13;1.98;;;;;;;;;;4989298;28;20421;-63
2022/07/01 14:15:56;;;;;;;3.30;2.10;;;;;;;;;;4989119;28;20390;-62
2022/07/01 14:18:22;;;;;;;2.33;1.95;;;;;;;;;;4989360;28;20436;-63
2022/07/01 14:20:47;;;;;;;2.30;1.92;;;;;;;;;;4990433;28;20106;-62
2022/07/01 14:23:13;;;;;;;2.85;2.28;;;;;;;;;;4988758;28;20061;-63
2022/07/01 14:25:40;;;;;;;2.33;2.13;;;;;;;;;;4990426;28;20467;-63
2022/07/01 14:28:06;;;;;;;2.40;1.83;;;;;;;;;;4990097;28;20084;-62
2022/07/01 14:30:32;;;;;;;2.42;1.77;;;;;;;;;;4990584;28;20458;-62
2022/07/01 14:36:34;;;;;;;3.00;2.03;;;;;;;;;;4989265;28;20490;-63
2022/07/01 14:39:00;;;;;;;3.55;1.92;;;;;;;;;;4988842;28;20344;-63
2022/07/01 14:41:25;;;;;;;2.15;1.92;;;;;;;;;;4988831;28;20408;-63
2022/07/01 14:43:51;;;;;;;8.80;3.30;;;;;;;;;;4971223;28;20029;-62
2022/07/01 14:46:16;;;;;;;2.10;1.90;;;;;;;;;;4988377;28;20111;-63
2022/07/01 14:48:41;;;;;;;3.15;2.03;;;;;;;;;;4989303;28;20447;-65
2022/07/01 14:51:07;;;;;;;2.45;1.80;;;;;;;;;;4988905;28;20371;-62
2022/07/01 14:53:33;;;;;;;4.32;1.92;;;;;;;;;;4988529;28;20032;-62
2022/07/01 14:55:58;;;;;;;1.90;1.73;;;;;;;;;;4988860;28;20598;-64